Rogersville, Missouri
Current Conditions -  °F | °C
As of 2:52 AM on Wednesday 26 Nov 2014 (Local Time) from KSGF Reporting Station
Few Clouds Few Clouds  
Wind Chill: 23°   Ceiling: Unl
Heat Index: 33°   Visibility: 10mi
Dew Point: 21°   Wind: 14mph
Humidity: 61%   Direction: 160°SSE
Pressure: 29.99"   Gusts: NA
Location:  37.12°N, 93.06°W
Report Text: KSGF 260852Z 16012KT 10SM FEW120 01/M06 A2999 RMK AO2 SLP163 T00061061 56028
Loading
Personal Weather Stations






























Interactive Weather Map New forecast layout! Learn more

10-Day Weather Forecast

Advertisements
Track Severe Weather on mobile